Somerset, Pennsylvania
Current Conditions -  °F | °C
As of 12:58 AM on Wednesday 22 Oct 2014 (Local Time) from KJST Reporting Station
Light Rain Light Rain  
Wind Chill: 41°   Ceiling: 300
Heat Index: 45°   Visibility: 1.7mi
Dew Point: 43°   Wind: 7mph
Humidity: 93%   Direction: 330°NNW
Pressure: 29.96"   Gusts: NA
Location:  40.01°N, 79.08°W
Report Text: KJST 220458Z AUTO 33006KT 1 3/4SM -RA BR OVC003 07/06 A2996 RMK AO2 P0000 T00720061
Loading
Personal Weather Stations






























Interactive Weather Map
Tropical Storm Tracking
New forecast layout! Learn more

10-Day Weather Forecast

Advertisements
Track Severe Weather on mobile